sensor_id;sensor_type;location;lat;lon;timestamp;P1;durP1;ratioP1;P2;durP2;ratioP2
39434;SDS011;30098;51.880;-0.518;2022-09-09T00:09:25;3.25;;;1.42;;
39434;SDS011;30098;51.880;-0.518;2022-09-09T00:15:02;2.67;;;1.40;;
39434;SDS011;30098;51.880;-0.518;2022-09-09T00:17:35;2.65;;;1.45;;
39434;SDS011;30098;51.880;-0.518;2022-09-09T00:22:52;2.25;;;1.17;;
39434;SDS011;30098;51.880;-0.518;2022-09-09T00:25:34;2.20;;;1.30;;
39434;SDS011;30098;51.880;-0.518;2022-09-09T00:28:13;2.60;;;1.30;;
39434;SDS011;30098;51.880;-0.518;2022-09-09T00:30:43;2.28;;;1.30;;
39434;SDS011;30098;51.880;-0.518;2022-09-09T00:33:12;2.63;;;1.20;;
39434;SDS011;30098;51.880;-0.518;2022-09-09T00:35:57;2.80;;;1.20;;
39434;SDS011;30098;51.880;-0.518;2022-09-09T00:38:24;2.83;;;1.48;;
39434;SDS011;30098;51.880;-0.518;2022-09-09T00:54:16;2.13;;;1.30;;
39434;SDS011;30098;51.880;-0.518;2022-09-09T00:57:04;2.65;;;1.38;;
39434;SDS011;30098;51.880;-0.518;2022-09-09T01:02:14;2.38;;;1.27;;
39434;SDS011;30098;51.880;-0.518;2022-09-09T01:04:47;2.78;;;1.42;;
39434;SDS011;30098;51.880;-0.518;2022-09-09T01:07:18;2.35;;;1.23;;
39434;SDS011;30098;51.880;-0.518;2022-09-09T01:10:07;3.40;;;1.50;;
39434;SDS011;30098;51.880;-0.518;2022-09-09T01:15:23;2.58;;;1.40;;
39434;SDS011;30098;51.880;-0.518;2022-09-09T01:26:15;2.70;;;1.10;;
39434;SDS011;30098;51.880;-0.518;2022-09-09T01:28:43;2.60;;;1.33;;
39434;SDS011;30098;51.880;-0.518;2022-09-09T01:31:11;2.53;;;1.30;;
39434;SDS011;30098;51.880;-0.518;2022-09-09T01:33:42;2.10;;;1.20;;
39434;SDS011;30098;51.880;-0.518;2022-09-09T01:36:08;2.55;;;1.35;;
39434;SDS011;30098;51.880;-0.518;2022-09-09T01:38:37;2.72;;;1.23;;
39434;SDS011;30098;51.880;-0.518;2022-09-09T01:41:03;2.47;;;1.25;;
39434;SDS011;30098;51.880;-0.518;2022-09-09T01:43:29;2.78;;;1.17;;
39434;SDS011;30098;51.880;-0.518;2022-09-09T01:45:56;2.85;;;1.23;;
39434;SDS011;30098;51.880;-0.518;2022-09-09T01:48:24;1.85;;;1.20;;
39434;SDS011;30098;51.880;-0.518;2022-09-09T01:50:50;2.45;;;1.30;;
39434;SDS011;30098;51.880;-0.518;2022-09-09T01:53:16;1.85;;;1.15;;
39434;SDS011;30098;51.880;-0.518;2022-09-09T01:55:56;2.30;;;1.30;;
39434;SDS011;30098;51.880;-0.518;2022-09-09T01:58:37;3.17;;;1.40;;
39434;SDS011;30098;51.880;-0.518;2022-09-09T02:01:13;2.88;;;1.50;;
39434;SDS011;30098;51.880;-0.518;2022-09-09T02:03:51;1.88;;;1.10;;
39434;SDS011;30098;51.880;-0.518;2022-09-09T02:08:59;2.22;;;1.10;;
39434;SDS011;30098;51.880;-0.518;2022-09-09T02:11:28;2.58;;;1.30;;
39434;SDS011;30098;51.880;-0.518;2022-09-09T02:13:56;2.13;;;1.20;;
39434;SDS011;30098;51.880;-0.518;2022-09-09T02:19:17;3.08;;;1.42;;
39434;SDS011;30098;51.880;-0.518;2022-09-09T02:21:53;2.05;;;1.10;;
39434;SDS011;30098;51.880;-0.518;2022-09-09T02:24:20;2.13;;;1.20;;
39434;SDS011;30098;51.880;-0.518;2022-09-09T02:26:47;2.30;;;1.10;;
39434;SDS011;30098;51.880;-0.518;2022-09-09T02:31:50;2.42;;;1.30;;
39434;SDS011;30098;51.880;-0.518;2022-09-09T02:34:20;2.00;;;1.10;;
39434;SDS011;30098;51.880;-0.518;2022-09-09T02:36:49;1.90;;;1.08;;
39434;SDS011;30098;51.880;-0.518;2022-09-09T02:39:15;2.50;;;1.15;;
39434;SDS011;30098;51.880;-0.518;2022-09-09T02:41:41;2.25;;;1.20;;
39434;SDS011;30098;51.880;-0.518;2022-09-09T02:44:11;2.25;;;1.13;;
39434;SDS011;30098;51.880;-0.518;2022-09-09T02:54:28;2.45;;;1.25;;
39434;SDS011;30098;51.880;-0.518;2022-09-09T02:57:01;1.98;;;1.20;;
39434;SDS011;30098;51.880;-0.518;2022-09-09T02:59:33;2.40;;;1.30;;
39434;SDS011;30098;51.880;-0.518;2022-09-09T03:01:58;2.10;;;1.10;;
39434;SDS011;30098;51.880;-0.518;2022-09-09T03:04:24;2.20;;;1.15;;
39434;SDS011;30098;51.880;-0.518;2022-09-09T03:06:50;1.90;;;1.15;;
39434;SDS011;30098;51.880;-0.518;2022-09-09T03:09:15;2.40;;;1.33;;
39434;SDS011;30098;51.880;-0.518;2022-09-09T03:11:41;1.80;;;1.30;;
39434;SDS011;30098;51.880;-0.518;2022-09-09T03:14:07;1.98;;;1.10;;
39434;SDS011;30098;51.880;-0.518;2022-09-09T03:16:33;2.30;;;1.15;;
39434;SDS011;30098;51.880;-0.518;2022-09-09T03:19:00;1.60;;;1.00;;
39434;SDS011;30098;51.880;-0.518;2022-09-09T03:21:26;1.70;;;0.90;;
39434;SDS011;30098;51.880;-0.518;2022-09-09T03:23:51;1.60;;;1.10;;
39434;SDS011;30098;51.880;-0.518;2022-09-09T03:26:17;2.10;;;1.10;;
39434;SDS011;30098;51.880;-0.518;2022-09-09T03:28:42;1.67;;;1.10;;
39434;SDS011;30098;51.880;-0.518;2022-09-09T03:31:08;2.85;;;1.23;;
39434;SDS011;30098;51.880;-0.518;2022-09-09T03:33:38;2.53;;;1.20;;
39434;SDS011;30098;51.880;-0.518;2022-09-09T03:36:04;2.13;;;1.30;;
39434;SDS011;30098;51.880;-0.518;2022-09-09T03:38:31;1.95;;;1.00;;
39434;SDS011;30098;51.880;-0.518;2022-09-09T03:40:57;1.95;;;1.00;;
39434;SDS011;30098;51.880;-0.518;2022-09-09T03:43:23;2.00;;;1.20;;
39434;SDS011;30098;51.880;-0.518;2022-09-09T03:45:50;1.95;;;1.10;;
39434;SDS011;30098;51.880;-0.518;2022-09-09T03:48:16;2.58;;;1.20;;
39434;SDS011;30098;51.880;-0.518;2022-09-09T03:50:50;1.83;;;1.10;;
39434;SDS011;30098;51.880;-0.518;2022-09-09T03:53:17;2.22;;;1.10;;
39434;SDS011;30098;51.880;-0.518;2022-09-09T03:55:45;1.60;;;0.85;;
39434;SDS011;30098;51.880;-0.518;2022-09-09T03:58:13;2.22;;;1.10;;
39434;SDS011;30098;51.880;-0.518;2022-09-09T04:00:40;1.85;;;1.30;;
39434;SDS011;30098;51.880;-0.518;2022-09-09T04:03:10;2.95;;;1.45;;
39434;SDS011;30098;51.880;-0.518;2022-09-09T04:05:38;1.73;;;1.08;;
39434;SDS011;30098;51.880;-0.518;2022-09-09T04:08:06;2.00;;;1.23;;
39434;SDS011;30098;51.880;-0.518;2022-09-09T04:10:32;1.73;;;1.05;;
39434;SDS011;30098;51.880;-0.518;2022-09-09T04:12:58;1.77;;;1.00;;
39434;SDS011;30098;51.880;-0.518;2022-09-09T04:15:25;2.03;;;1.10;;
39434;SDS011;30098;51.880;-0.518;2022-09-09T04:17:50;1.80;;;1.02;;
39434;SDS011;30098;51.880;-0.518;2022-09-09T04:20:16;2.50;;;1.30;;
39434;SDS011;30098;51.880;-0.518;2022-09-09T04:22:41;2.03;;;1.20;;
39434;SDS011;30098;51.880;-0.518;2022-09-09T04:25:07;2.38;;;1.20;;
39434;SDS011;30098;51.880;-0.518;2022-09-09T04:27:33;2.72;;;1.27;;
39434;SDS011;30098;51.880;-0.518;2022-09-09T04:29:58;2.05;;;1.10;;
39434;SDS011;30098;51.880;-0.518;2022-09-09T04:32:24;1.85;;;1.17;;
39434;SDS011;30098;51.880;-0.518;2022-09-09T04:34:52;1.65;;;1.10;;
39434;SDS011;30098;51.880;-0.518;2022-09-09T04:37:18;2.40;;;1.02;;
39434;SDS011;30098;51.880;-0.518;2022-09-09T04:39:43;1.48;;;1.00;;
39434;SDS011;30098;51.880;-0.518;2022-09-09T04:42:10;1.92;;;0.90;;
39434;SDS011;30098;51.880;-0.518;2022-09-09T04:44:36;1.70;;;1.00;;
39434;SDS011;30098;51.880;-0.518;2022-09-09T04:47:01;1.92;;;1.17;;
39434;SDS011;30098;51.880;-0.518;2022-09-09T04:49:27;2.65;;;1.10;;
39434;SDS011;30098;51.880;-0.518;2022-09-09T04:51:52;2.15;;;1.10;;
39434;SDS011;30098;51.880;-0.518;2022-09-09T04:54:18;1.63;;;1.00;;
39434;SDS011;30098;51.880;-0.518;2022-09-09T04:56:44;2.95;;;1.33;;
39434;SDS011;30098;51.880;-0.518;2022-09-09T04:59:09;1.95;;;1.10;;
39434;SDS011;30098;51.880;-0.518;2022-09-09T05:01:35;1.95;;;1.15;;
39434;SDS011;30098;51.880;-0.518;2022-09-09T05:04:01;1.50;;;1.10;;
39434;SDS011;30098;51.880;-0.518;2022-09-09T05:06:28;1.90;;;1.08;;
39434;SDS011;30098;51.880;-0.518;2022-09-09T05:08:56;1.90;;;1.10;;
39434;SDS011;30098;51.880;-0.518;2022-09-09T05:11:23;2.05;;;1.13;;
39434;SDS011;30098;51.880;-0.518;2022-09-09T05:13:54;1.77;;;1.00;;
39434;SDS011;30098;51.880;-0.518;2022-09-09T05:16:20;1.90;;;0.95;;
39434;SDS011;30098;51.880;-0.518;2022-09-09T05:18:46;1.88;;;1.10;;
39434;SDS011;30098;51.880;-0.518;2022-09-09T05:21:13;2.28;;;1.10;;
39434;SDS011;30098;51.880;-0.518;2022-09-09T05:23:39;2.38;;;1.05;;
39434;SDS011;30098;51.880;-0.518;2022-09-09T05:26:06;1.70;;;1.10;;
39434;SDS011;30098;51.880;-0.518;2022-09-09T05:28:34;2.13;;;1.17;;
39434;SDS011;30098;51.880;-0.518;2022-09-09T05:31:03;1.25;;;1.00;;
39434;SDS011;30098;51.880;-0.518;2022-09-09T05:33:31;1.90;;;1.10;;
39434;SDS011;30098;51.880;-0.518;2022-09-09T05:36:01;2.08;;;1.10;;
39434;SDS011;30098;51.880;-0.518;2022-09-09T05:38:29;2.22;;;1.10;;
39434;SDS011;30098;51.880;-0.518;2022-09-09T05:40:55;2.65;;;1.00;;
39434;SDS011;30098;51.880;-0.518;2022-09-09T05:43:22;1.65;;;0.95;;
39434;SDS011;30098;51.880;-0.518;2022-09-09T05:45:58;1.73;;;1.02;;
39434;SDS011;30098;51.880;-0.518;2022-09-09T05:48:33;2.28;;;0.95;;
39434;SDS011;30098;51.880;-0.518;2022-09-09T05:51:00;1.92;;;1.20;;
39434;SDS011;30098;51.880;-0.518;2022-09-09T05:53:27;1.98;;;1.00;;
39434;SDS011;30098;51.880;-0.518;2022-09-09T05:56:03;2.25;;;1.13;;
39434;SDS011;30098;51.880;-0.518;2022-09-09T05:58:33;1.55;;;1.10;;
39434;SDS011;30098;51.880;-0.518;2022-09-09T06:01:09;1.85;;;0.93;;
39434;SDS011;30098;51.880;-0.518;2022-09-09T06:03:39;1.90;;;1.00;;
39434;SDS011;30098;51.880;-0.518;2022-09-09T06:06:07;1.30;;;0.90;;
39434;SDS011;30098;51.880;-0.518;2022-09-09T06:08:35;1.98;;;1.00;;
39434;SDS011;30098;51.880;-0.518;2022-09-09T06:13:30;1.77;;;0.90;;
39434;SDS011;30098;51.880;-0.518;2022-09-09T06:15:56;1.60;;;1.10;;
39434;SDS011;30098;51.880;-0.518;2022-09-09T06:18:23;1.30;;;0.90;;
39434;SDS011;30098;51.880;-0.518;2022-09-09T06:20:56;1.60;;;1.00;;
39434;SDS011;30098;51.880;-0.518;2022-09-09T06:23:23;2.88;;;1.25;;
39434;SDS011;30098;51.880;-0.518;2022-09-09T06:25:49;2.13;;;1.10;;
39434;SDS011;30098;51.880;-0.518;2022-09-09T06:28:15;1.30;;;0.90;;
39434;SDS011;30098;51.880;-0.518;2022-09-09T06:30:41;1.77;;;0.93;;
39434;SDS011;30098;51.880;-0.518;2022-09-09T06:33:06;1.50;;;0.93;;
39434;SDS011;30098;51.880;-0.518;2022-09-09T06:35:32;1.92;;;1.08;;
39434;SDS011;30098;51.880;-0.518;2022-09-09T06:37:57;1.40;;;0.90;;
39434;SDS011;30098;51.880;-0.518;2022-09-09T06:40:24;1.48;;;0.98;;
39434;SDS011;30098;51.880;-0.518;2022-09-09T06:42:49;1.67;;;0.85;;
39434;SDS011;30098;51.880;-0.518;2022-09-09T06:45:15;2.10;;;1.05;;
39434;SDS011;30098;51.880;-0.518;2022-09-09T06:47:42;2.42;;;1.10;;
39434;SDS011;30098;51.880;-0.518;2022-09-09T06:50:08;1.90;;;1.10;;
39434;SDS011;30098;51.880;-0.518;2022-09-09T06:52:35;1.60;;;1.13;;
39434;SDS011;30098;51.880;-0.518;2022-09-09T06:55:01;1.27;;;0.90;;
39434;SDS011;30098;51.880;-0.518;2022-09-09T06:57:27;2.17;;;1.20;;
39434;SDS011;30098;51.880;-0.518;2022-09-09T06:59:53;2.10;;;1.23;;
39434;SDS011;30098;51.880;-0.518;2022-09-09T07:02:18;1.90;;;1.10;;
39434;SDS011;30098;51.880;-0.518;2022-09-09T07:04:44;1.90;;;1.30;;
39434;SDS011;30098;51.880;-0.518;2022-09-09T07:07:09;2.40;;;1.27;;
39434;SDS011;30098;51.880;-0.518;2022-09-09T07:09:37;1.73;;;1.05;;
39434;SDS011;30098;51.880;-0.518;2022-09-09T07:12:02;2.00;;;1.27;;
39434;SDS011;30098;51.880;-0.518;2022-09-09T07:14:29;1.80;;;1.10;;
39434;SDS011;30098;51.880;-0.518;2022-09-09T07:16:54;2.90;;;1.33;;
39434;SDS011;30098;51.880;-0.518;2022-09-09T07:19:20;1.50;;;1.10;;
39434;SDS011;30098;51.880;-0.518;2022-09-09T07:21:45;1.40;;;1.15;;
39434;SDS011;30098;51.880;-0.518;2022-09-09T07:24:11;1.70;;;0.90;;
39434;SDS011;30098;51.880;-0.518;2022-09-09T07:26:37;2.05;;;1.15;;
39434;SDS011;30098;51.880;-0.518;2022-09-09T07:29:03;2.08;;;1.20;;
39434;SDS011;30098;51.880;-0.518;2022-09-09T07:31:30;1.50;;;1.10;;
39434;SDS011;30098;51.880;-0.518;2022-09-09T07:33:57;3.92;;;1.30;;
39434;SDS011;30098;51.880;-0.518;2022-09-09T07:36:34;3.38;;;1.60;;
39434;SDS011;30098;51.880;-0.518;2022-09-09T07:39:07;6.50;;;3.50;;
39434;SDS011;30098;51.880;-0.518;2022-09-09T07:41:39;5.95;;;4.53;;
39434;SDS011;30098;51.880;-0.518;2022-09-09T07:44:12;5.65;;;4.75;;
39434;SDS011;30098;51.880;-0.518;2022-09-09T07:46:39;6.05;;;5.07;;
39434;SDS011;30098;51.880;-0.518;2022-09-09T07:49:06;7.53;;;5.28;;
39434;SDS011;30098;51.880;-0.518;2022-09-09T07:51:34;11.98;;;5.63;;
39434;SDS011;30098;51.880;-0.518;2022-09-09T07:54:03;7.10;;;5.15;;
39434;SDS011;30098;51.880;-0.518;2022-09-09T07:56:30;7.88;;;5.47;;
39434;SDS011;30098;51.880;-0.518;2022-09-09T07:58:57;6.50;;;5.30;;
39434;SDS011;30098;51.880;-0.518;2022-09-09T08:01:28;8.40;;;5.80;;
39434;SDS011;30098;51.880;-0.518;2022-09-09T08:04:01;9.02;;;5.40;;
39434;SDS011;30098;51.880;-0.518;2022-09-09T08:06:29;6.68;;;5.72;;
39434;SDS011;30098;51.880;-0.518;2022-09-09T08:09:00;7.97;;;5.72;;
39434;SDS011;30098;51.880;-0.518;2022-09-09T08:11:26;10.18;;;6.30;;
39434;SDS011;30098;51.880;-0.518;2022-09-09T08:13:53;9.00;;;5.80;;
39434;SDS011;30098;51.880;-0.518;2022-09-09T08:16:21;7.53;;;6.35;;
39434;SDS011;30098;51.880;-0.518;2022-09-09T08:18:49;8.25;;;6.70;;
39434;SDS011;30098;51.880;-0.518;2022-09-09T08:21:26;10.05;;;6.53;;
39434;SDS011;30098;51.880;-0.518;2022-09-09T08:23:54;7.70;;;6.40;;
39434;SDS011;30098;51.880;-0.518;2022-09-09T08:26:22;7.05;;;6.32;;
39434;SDS011;30098;51.880;-0.518;2022-09-09T08:28:53;8.60;;;6.70;;
39434;SDS011;30098;51.880;-0.518;2022-09-09T08:31:21;10.98;;;7.07;;
39434;SDS011;30098;51.880;-0.518;2022-09-09T08:33:49;8.57;;;6.72;;
39434;SDS011;30098;51.880;-0.518;2022-09-09T08:36:19;10.13;;;7.25;;
39434;SDS011;30098;51.880;-0.518;2022-09-09T08:38:47;9.60;;;6.90;;
39434;SDS011;30098;51.880;-0.518;2022-09-09T08:44:00;7.45;;;6.45;;
39434;SDS011;30098;51.880;-0.518;2022-09-09T08:53:30;9.57;;;6.53;;
39434;SDS011;30098;51.880;-0.518;2022-09-09T08:55:48;9.57;;;7.47;;
39434;SDS011;30098;51.880;-0.518;2022-09-09T08:58:25;10.68;;;7.20;;
39434;SDS011;30098;51.880;-0.518;2022-09-09T09:12:06;8.93;;;7.50;;
39434;SDS011;30098;51.880;-0.518;2022-09-09T09:14:40;9.35;;;6.50;;
39434;SDS011;30098;51.880;-0.518;2022-09-09T09:17:09;10.18;;;7.03;;
39434;SDS011;30098;51.880;-0.518;2022-09-09T09:19:38;8.27;;;6.60;;
39434;SDS011;30098;51.880;-0.518;2022-09-09T09:27:33;8.75;;;6.60;;
39434;SDS011;30098;51.880;-0.518;2022-09-09T09:30:14;7.78;;;6.75;;
39434;SDS011;30098;51.880;-0.518;2022-09-09T09:35:33;10.85;;;6.93;;
39434;SDS011;30098;51.880;-0.518;2022-09-09T09:37:59;8.40;;;6.50;;
39434;SDS011;30098;51.880;-0.518;2022-09-09T09:40:26;7.80;;;5.90;;
39434;SDS011;30098;51.880;-0.518;2022-09-09T09:42:58;7.75;;;6.18;;
39434;SDS011;30098;51.880;-0.518;2022-09-09T09:45:31;7.70;;;6.43;;
39434;SDS011;30098;51.880;-0.518;2022-09-09T09:48:03;6.85;;;5.40;;
39434;SDS011;30098;51.880;-0.518;2022-09-09T09:50:30;7.10;;;5.25;;
39434;SDS011;30098;51.880;-0.518;2022-09-09T09:52:59;7.45;;;5.82;;
39434;SDS011;30098;51.880;-0.518;2022-09-09T09:55:29;7.20;;;5.30;;
39434;SDS011;30098;51.880;-0.518;2022-09-09T09:58:03;6.35;;;5.22;;
39434;SDS011;30098;51.880;-0.518;2022-09-09T10:00:31;8.27;;;5.32;;
39434;SDS011;30098;51.880;-0.518;2022-09-09T10:03:00;7.07;;;5.20;;
39434;SDS011;30098;51.880;-0.518;2022-09-09T10:05:29;5.82;;;4.50;;
39434;SDS011;30098;51.880;-0.518;2022-09-09T10:08:08;6.70;;;4.65;;
39434;SDS011;30098;51.880;-0.518;2022-09-09T10:14:11;7.70;;;4.25;;
39434;SDS011;30098;51.880;-0.518;2022-09-09T10:30:18;6.05;;;4.82;;
39434;SDS011;30098;51.880;-0.518;2022-09-09T10:32:54;7.32;;;4.90;;
39434;SDS011;30098;51.880;-0.518;2022-09-09T10:38:42;7.25;;;4.50;;
39434;SDS011;30098;51.880;-0.518;2022-09-09T10:41:19;6.93;;;4.80;;
39434;SDS011;30098;51.880;-0.518;2022-09-09T10:46:22;8.30;;;4.28;;
39434;SDS011;30098;51.880;-0.518;2022-09-09T10:54:54;7.40;;;5.05;;
39434;SDS011;30098;51.880;-0.518;2022-09-09T10:57:40;5.63;;;4.50;;
39434;SDS011;30098;51.880;-0.518;2022-09-09T11:00:14;5.20;;;4.70;;
39434;SDS011;30098;51.880;-0.518;2022-09-09T11:02:43;7.45;;;4.38;;
39434;SDS011;30098;51.880;-0.518;2022-09-09T11:07:49;5.28;;;4.55;;
39434;SDS011;30098;51.880;-0.518;2022-09-09T11:12:50;7.90;;;4.70;;
39434;SDS011;30098;51.880;-0.518;2022-09-09T11:15:28;5.40;;;4.25;;
39434;SDS011;30098;51.880;-0.518;2022-09-09T11:18:03;6.40;;;4.55;;
39434;SDS011;30098;51.880;-0.518;2022-09-09T11:20:30;5.88;;;4.45;;
39434;SDS011;30098;51.880;-0.518;2022-09-09T11:25:45;6.38;;;4.60;;
39434;SDS011;30098;51.880;-0.518;2022-09-09T11:44:39;8.02;;;5.10;;
39434;SDS011;30098;51.880;-0.518;2022-09-09T11:47:22;9.32;;;5.15;;
39434;SDS011;30098;51.880;-0.518;2022-09-09T11:50:06;8.75;;;5.40;;
39434;SDS011;30098;51.880;-0.518;2022-09-09T11:52:42;9.00;;;5.38;;
39434;SDS011;30098;51.880;-0.518;2022-09-09T12:00:31;5.97;;;4.38;;
39434;SDS011;30098;51.880;-0.518;2022-09-09T12:02:58;6.50;;;4.10;;
39434;SDS011;30098;51.880;-0.518;2022-09-09T12:05:24;7.30;;;3.70;;
39434;SDS011;30098;51.880;-0.518;2022-09-09T12:08:06;8.52;;;4.25;;
39434;SDS011;30098;51.880;-0.518;2022-09-09T12:10:35;6.53;;;3.42;;
39434;SDS011;30098;51.880;-0.518;2022-09-09T12:13:20;4.90;;;3.50;;
39434;SDS011;30098;51.880;-0.518;2022-09-09T12:15:51;7.55;;;3.90;;
39434;SDS011;30098;51.880;-0.518;2022-09-09T12:18:22;8.20;;;3.90;;
39434;SDS011;30098;51.880;-0.518;2022-09-09T12:28:41;6.05;;;3.47;;
39434;SDS011;30098;51.880;-0.518;2022-09-09T12:34:09;6.13;;;3.28;;
39434;SDS011;30098;51.880;-0.518;2022-09-09T12:36:38;6.38;;;2.75;;
39434;SDS011;30098;51.880;-0.518;2022-09-09T12:39:16;6.13;;;3.05;;
39434;SDS011;30098;51.880;-0.518;2022-09-09T12:41:54;6.00;;;3.40;;
39434;SDS011;30098;51.880;-0.518;2022-09-09T12:44:21;7.40;;;3.22;;
39434;SDS011;30098;51.880;-0.518;2022-09-09T12:46:48;5.75;;;3.60;;
39434;SDS011;30098;51.880;-0.518;2022-09-09T12:51:56;6.68;;;3.00;;
39434;SDS011;30098;51.880;-0.518;2022-09-09T12:54:22;7.53;;;2.92;;
39434;SDS011;30098;51.880;-0.518;2022-09-09T12:56:48;5.63;;;2.60;;
39434;SDS011;30098;51.880;-0.518;2022-09-09T12:59:22;7.90;;;3.05;;
39434;SDS011;30098;51.880;-0.518;2022-09-09T13:02:20;7.13;;;2.95;;
39434;SDS011;30098;51.880;-0.518;2022-09-09T13:04:47;5.50;;;3.00;;
39434;SDS011;30098;51.880;-0.518;2022-09-09T13:07:15;7.05;;;2.80;;
39434;SDS011;30098;51.880;-0.518;2022-09-09T13:09:41;5.45;;;2.33;;
39434;SDS011;30098;51.880;-0.518;2022-09-09T13:12:11;8.25;;;2.65;;
39434;SDS011;30098;51.880;-0.518;2022-09-09T13:14:40;6.30;;;2.28;;
39434;SDS011;30098;51.880;-0.518;2022-09-09T13:17:17;7.38;;;2.20;;
39434;SDS011;30098;51.880;-0.518;2022-09-09T13:19:47;8.05;;;2.30;;
39434;SDS011;30098;51.880;-0.518;2022-09-09T13:22:24;6.72;;;2.40;;
39434;SDS011;30098;51.880;-0.518;2022-09-09T13:27:33;5.78;;;2.38;;
39434;SDS011;30098;51.880;-0.518;2022-09-09T13:30:23;4.80;;;1.92;;
39434;SDS011;30098;51.880;-0.518;2022-09-09T13:35:35;8.88;;;3.05;;
39434;SDS011;30098;51.880;-0.518;2022-09-09T13:38:13;7.45;;;2.55;;
39434;SDS011;30098;51.880;-0.518;2022-09-09T13:40:40;5.60;;;2.60;;
39434;SDS011;30098;51.880;-0.518;2022-09-09T13:43:05;5.85;;;2.47;;
39434;SDS011;30098;51.880;-0.518;2022-09-09T13:45:51;8.50;;;2.70;;
39434;SDS011;30098;51.880;-0.518;2022-09-09T13:48:19;5.00;;;2.13;;
39434;SDS011;30098;51.880;-0.518;2022-09-09T13:50:53;4.65;;;2.17;;
39434;SDS011;30098;51.880;-0.518;2022-09-09T13:53:21;4.05;;;2.00;;
39434;SDS011;30098;51.880;-0.518;2022-09-09T13:55:46;8.90;;;2.60;;
39434;SDS011;30098;51.880;-0.518;2022-09-09T13:58:15;10.10;;;3.10;;
39434;SDS011;30098;51.880;-0.518;2022-09-09T14:00:43;4.95;;;2.20;;
39434;SDS011;30098;51.880;-0.518;2022-09-09T14:03:09;8.55;;;2.50;;
39434;SDS011;30098;51.880;-0.518;2022-09-09T14:05:35;8.13;;;2.35;;
39434;SDS011;30098;51.880;-0.518;2022-09-09T14:08:02;5.63;;;2.15;;
39434;SDS011;30098;51.880;-0.518;2022-09-09T14:10:32;14.10;;;3.20;;
39434;SDS011;30098;51.880;-0.518;2022-09-09T14:13:00;7.85;;;1.75;;
39434;SDS011;30098;51.880;-0.518;2022-09-09T14:15:26;7.03;;;2.05;;
39434;SDS011;30098;51.880;-0.518;2022-09-09T14:17:52;4.18;;;2.00;;
39434;SDS011;30098;51.880;-0.518;2022-09-09T14:20:17;3.92;;;1.77;;
39434;SDS011;30098;51.880;-0.518;2022-09-09T14:22:44;4.47;;;1.75;;
39434;SDS011;30098;51.880;-0.518;2022-09-09T14:25:10;8.10;;;2.13;;
39434;SDS011;30098;51.880;-0.518;2022-09-09T14:27:38;9.15;;;2.00;;
39434;SDS011;30098;51.880;-0.518;2022-09-09T14:30:04;2.85;;;1.50;;
39434;SDS011;30098;51.880;-0.518;2022-09-09T14:32:31;5.88;;;2.15;;
39434;SDS011;30098;51.880;-0.518;2022-09-09T14:34:56;3.72;;;1.63;;
39434;SDS011;30098;51.880;-0.518;2022-09-09T14:37:22;5.55;;;2.28;;
39434;SDS011;30098;51.880;-0.518;2022-09-09T14:39:47;6.80;;;2.42;;
39434;SDS011;30098;51.880;-0.518;2022-09-09T14:42:15;4.05;;;1.88;;
39434;SDS011;30098;51.880;-0.518;2022-09-09T14:44:41;3.13;;;1.50;;
39434;SDS011;30098;51.880;-0.518;2022-09-09T14:47:07;3.55;;;1.63;;
39434;SDS011;30098;51.880;-0.518;2022-09-09T14:49:34;3.88;;;1.70;;
39434;SDS011;30098;51.880;-0.518;2022-09-09T14:52:00;4.18;;;1.80;;
39434;SDS011;30098;51.880;-0.518;2022-09-09T14:54:26;5.55;;;2.25;;
39434;SDS011;30098;51.880;-0.518;2022-09-09T14:56:51;3.78;;;2.00;;
39434;SDS011;30098;51.880;-0.518;2022-09-09T14:59:17;3.78;;;1.70;;
39434;SDS011;30098;51.880;-0.518;2022-09-09T15:01:42;5.65;;;1.98;;
39434;SDS011;30098;51.880;-0.518;2022-09-09T15:04:10;5.47;;;2.30;;
39434;SDS011;30098;51.880;-0.518;2022-09-09T15:06:37;4.77;;;2.20;;
39434;SDS011;30098;51.880;-0.518;2022-09-09T15:09:04;8.02;;;2.50;;
39434;SDS011;30098;51.880;-0.518;2022-09-09T15:11:31;5.18;;;2.00;;
39434;SDS011;30098;51.880;-0.518;2022-09-09T15:14:02;4.28;;;1.88;;
39434;SDS011;30098;51.880;-0.518;2022-09-09T15:16:29;4.72;;;1.92;;
39434;SDS011;30098;51.880;-0.518;2022-09-09T15:18:57;7.32;;;2.30;;
39434;SDS011;30098;51.880;-0.518;2022-09-09T15:21:24;7.00;;;2.55;;
39434;SDS011;30098;51.880;-0.518;2022-09-09T15:23:52;6.97;;;2.58;;
39434;SDS011;30098;51.880;-0.518;2022-09-09T15:26:18;8.27;;;2.40;;
39434;SDS011;30098;51.880;-0.518;2022-09-09T15:28:44;3.97;;;1.70;;
39434;SDS011;30098;51.880;-0.518;2022-09-09T15:31:11;5.03;;;1.95;;
39434;SDS011;30098;51.880;-0.518;2022-09-09T15:34:03;3.42;;;1.60;;
39434;SDS011;30098;51.880;-0.518;2022-09-09T15:36:32;6.15;;;2.08;;
39434;SDS011;30098;51.880;-0.518;2022-09-09T15:39:03;6.10;;;2.50;;
39434;SDS011;30098;51.880;-0.518;2022-09-09T15:41:30;6.45;;;2.67;;
39434;SDS011;30098;51.880;-0.518;2022-09-09T15:43:59;6.82;;;3.15;;
39434;SDS011;30098;51.880;-0.518;2022-09-09T15:49:08;8.05;;;3.17;;
39434;SDS011;30098;51.880;-0.518;2022-09-09T15:51:35;12.32;;;3.47;;
39434;SDS011;30098;51.880;-0.518;2022-09-09T15:54:02;5.97;;;3.00;;
39434;SDS011;30098;51.880;-0.518;2022-09-09T15:56:29;7.03;;;3.45;;
39434;SDS011;30098;51.880;-0.518;2022-09-09T15:58:58;5.93;;;2.90;;
39434;SDS011;30098;51.880;-0.518;2022-09-09T16:01:25;5.55;;;2.95;;
39434;SDS011;30098;51.880;-0.518;2022-09-09T16:03:52;8.98;;;4.03;;
39434;SDS011;30098;51.880;-0.518;2022-09-09T16:06:19;9.20;;;3.70;;
39434;SDS011;30098;51.880;-0.518;2022-09-09T16:08:47;7.65;;;3.50;;
39434;SDS011;30098;51.880;-0.518;2022-09-09T16:11:16;5.40;;;3.67;;
39434;SDS011;30098;51.880;-0.518;2022-09-09T16:13:47;7.00;;;4.22;;
39434;SDS011;30098;51.880;-0.518;2022-09-09T16:16:15;8.23;;;4.57;;
39434;SDS011;30098;51.880;-0.518;2022-09-09T16:18:42;7.68;;;4.70;;
39434;SDS011;30098;51.880;-0.518;2022-09-09T16:21:16;7.22;;;4.30;;
39434;SDS011;30098;51.880;-0.518;2022-09-09T16:23:47;12.20;;;3.53;;
39434;SDS011;30098;51.880;-0.518;2022-09-09T16:26:14;8.27;;;2.75;;
39434;SDS011;30098;51.880;-0.518;2022-09-09T16:28:41;4.53;;;2.38;;
39434;SDS011;30098;51.880;-0.518;2022-09-09T16:31:08;4.20;;;2.17;;
39434;SDS011;30098;51.880;-0.518;2022-09-09T16:33:36;4.70;;;1.83;;
39434;SDS011;30098;51.880;-0.518;2022-09-09T16:36:08;4.25;;;1.80;;
39434;SDS011;30098;51.880;-0.518;2022-09-09T16:38:37;4.43;;;1.88;;
39434;SDS011;30098;51.880;-0.518;2022-09-09T16:41:03;4.57;;;1.80;;
39434;SDS011;30098;51.880;-0.518;2022-09-09T16:43:31;4.55;;;2.05;;
39434;SDS011;30098;51.880;-0.518;2022-09-09T16:45:58;3.72;;;2.10;;
39434;SDS011;30098;51.880;-0.518;2022-09-09T16:48:26;4.75;;;2.10;;
39434;SDS011;30098;51.880;-0.518;2022-09-09T16:51:04;4.05;;;2.22;;
39434;SDS011;30098;51.880;-0.518;2022-09-09T16:53:32;5.35;;;2.30;;
39434;SDS011;30098;51.880;-0.518;2022-09-09T16:55:58;7.45;;;2.85;;
39434;SDS011;30098;51.880;-0.518;2022-09-09T16:58:31;5.85;;;2.78;;
39434;SDS011;30098;51.880;-0.518;2022-09-09T17:01:02;6.00;;;2.70;;
39434;SDS011;30098;51.880;-0.518;2022-09-09T17:03:29;5.53;;;2.90;;
39434;SDS011;30098;51.880;-0.518;2022-09-09T17:05:56;7.05;;;2.92;;
39434;SDS011;30098;51.880;-0.518;2022-09-09T17:08:23;7.18;;;3.50;;
39434;SDS011;30098;51.880;-0.518;2022-09-09T17:10:49;8.25;;;3.50;;
39434;SDS011;30098;51.880;-0.518;2022-09-09T17:13:15;8.07;;;3.22;;
39434;SDS011;30098;51.880;-0.518;2022-09-09T17:15:44;5.30;;;3.03;;
39434;SDS011;30098;51.880;-0.518;2022-09-09T17:18:10;5.40;;;3.10;;
39434;SDS011;30098;51.880;-0.518;2022-09-09T17:20:37;9.57;;;3.08;;
39434;SDS011;30098;51.880;-0.518;2022-09-09T17:23:06;5.22;;;2.60;;
39434;SDS011;30098;51.880;-0.518;2022-09-09T17:25:34;6.32;;;2.65;;
39434;SDS011;30098;51.880;-0.518;2022-09-09T17:28:01;6.38;;;2.60;;
39434;SDS011;30098;51.880;-0.518;2022-09-09T17:30:29;5.82;;;2.50;;
39434;SDS011;30098;51.880;-0.518;2022-09-09T17:32:58;3.85;;;2.47;;